Time;durP1;ratioP1;P1;durP2;ratioP2;P2;SDS_P1;SDS_P2;PMS_P1;PMS_P2;Temp;Humidity;BMP_temperature;BMP_pressure;BME280_temperature;BME280_humidity;BME280_pressure;Samples;Min_cycle;Max_cycle;Signal;HPM_P1;HPM_P2
2021/12/14 00:00:23;;;;;;;48.03;28.17;;;3.40;82.00;;;;;;4994467;28;20042;-73
2021/12/14 00:02:50;;;;;;;55.60;30.13;;;3.30;82.20;;;;;;4994383;28;20416;-73
2021/12/14 00:05:18;;;;;;;50.20;30.63;;;3.30;82.50;;;;;;4994476;28;20076;-72
2021/12/14 00:07:44;;;;;;;51.60;30.57;;;3.30;82.10;;;;;;4994455;28;20033;-73
2021/12/14 00:13:13;;;;;;;51.17;30.13;;;3.30;81.70;;;;;;4992766;28;20042;-72
2021/12/14 00:15:38;;;;;;;47.23;29.43;;;3.30;82.00;;;;;;4994320;28;20054;-73
2021/12/14 00:18:10;;;;;;;49.40;28.17;;;3.20;82.30;;;;;;4994212;28;20702;-72
2021/12/14 00:20:48;;;;;;;46.53;27.60;;;3.20;82.80;;;;;;4993816;28;20030;-72
2021/12/14 00:25:49;;;;;;;42.33;26.27;;;3.10;83.40;;;;;;4993916;28;20030;-72
2021/12/14 00:28:34;;;;;;;39.37;24.43;;;3.20;83.10;;;;;;4993844;28;20054;-72
2021/12/14 00:31:10;;;;;;;37.17;23.47;;;3.20;83.80;;;;;;4994133;28;20762;-72
2021/12/14 00:33:39;;;;;;;36.43;23.07;;;3.20;83.80;;;;;;4993795;28;20050;-73
2021/12/14 00:36:07;;;;;;;36.07;22.63;;;3.30;83.50;;;;;;4994030;28;20110;-73
2021/12/14 00:38:34;;;;;;;39.53;22.50;;;3.40;83.10;;;;;;4994000;28;20031;-72
2021/12/14 00:41:14;;;;;;;34.53;22.30;;;3.50;82.20;;;;;;4993553;28;20134;-72
2021/12/14 00:43:41;;;;;;;38.53;23.13;;;3.50;82.10;;;;;;4993711;28;20128;-73
2021/12/14 00:46:07;;;;;;;42.47;23.93;;;3.50;81.80;;;;;;4994109;28;20382;-72
2021/12/14 00:48:33;;;;;;;39.63;23.80;;;3.50;82.10;;;;;;4993816;28;20039;-75
2021/12/14 00:51:00;;;;;;;38.13;22.73;;;3.40;82.50;;;;;;4993974;28;20022;-73
2021/12/14 00:53:28;;;;;;;36.53;22.03;;;3.40;82.60;;;;;;4993744;28;20030;-74
2021/12/14 00:55:55;;;;;;;36.97;23.87;;;3.40;82.60;;;;;;4993311;28;20023;-74
2021/12/14 00:58:22;;;;;;;38.37;22.73;;;3.40;83.10;;;;;;4993670;28;20430;-74
2021/12/14 01:00:56;;;;;;;35.73;22.57;;;3.40;82.50;;;;;;4993800;28;20022;-75
2021/12/14 01:03:24;;;;;;;36.90;22.93;;;3.50;82.10;;;;;;4993653;28;20062;-73
2021/12/14 01:05:51;;;;;;;43.27;23.00;;;3.50;80.90;;;;;;4993178;28;20478;-74
2021/12/14 01:08:20;;;;;;;38.33;22.80;;;3.50;80.90;;;;;;4993334;28;20117;-74
2021/12/14 01:10:51;;;;;;;37.67;23.67;;;3.50;80.60;;;;;;4993916;28;20022;-74
2021/12/14 01:13:21;;;;;;;38.20;23.63;;;3.40;80.40;;;;;;4993346;28;20025;-74
2021/12/14 01:19:13;;;;;;;41.17;23.63;;;3.20;82.00;;;;;;4993553;28;20038;-74
2021/12/14 01:27:11;;;;;;;38.60;20.70;;;3.00;84.00;;;;;;4993175;28;20053;-74
2021/12/14 01:29:37;;;;;;;32.63;18.90;;;3.00;83.80;;;;;;4993287;28;20026;-74
2021/12/14 01:32:05;;;;;;;33.93;20.70;;;3.00;84.00;;;;;;4992807;28;20084;-74
2021/12/14 01:34:32;;;;;;;32.83;20.83;;;3.00;83.50;;;;;;4993515;28;20087;-74
2021/12/14 01:37:06;;;;;;;35.73;20.57;;;3.00;83.60;;;;;;4993388;28;20546;-74
2021/12/14 01:42:18;;;;;;;37.38;20.48;;;2.90;84.20;;;;;;4993138;28;20142;-74
2021/12/14 01:44:58;;;;;;;33.20;19.27;;;2.80;84.10;;;;;;4993005;28;20057;-74
2021/12/14 01:47:33;;;;;;;34.60;18.90;;;2.90;84.30;;;;;;4993101;28;20030;-74
2021/12/14 01:49:59;;;;;;;32.07;20.40;;;2.90;84.10;;;;;;4993175;28;20035;-75
2021/12/14 01:52:28;;;;;;;32.90;20.07;;;2.90;84.20;;;;;;4994890;28;20410;-74
2021/12/14 01:55:00;;;;;;;33.00;21.03;;;3.00;83.40;;;;;;4997045;28;20066;-73
2021/12/14 01:57:29;;;;;;;35.07;20.30;;;2.90;83.50;;;;;;4997024;28;20025;-74
2021/12/14 01:59:58;;;;;;;32.53;20.13;;;2.90;83.60;;;;;;4993813;28;20080;-74
2021/12/14 02:02:42;;;;;;;31.03;18.57;;;2.90;83.90;;;;;;4992838;28;20473;-74
2021/12/14 02:05:32;;;;;;;31.17;19.17;;;2.90;84.20;;;;;;4995480;28;20022;-74
2021/12/14 02:08:00;;;;;;;28.57;18.50;;;2.90;84.30;;;;;;4996812;28;20391;-74
2021/12/14 02:10:37;;;;;;;33.23;18.97;;;2.90;83.90;;;;;;4995252;28;20375;-75
2021/12/14 02:13:04;;;;;;;31.03;18.47;;;2.90;84.00;;;;;;4996225;28;20075;-74
2021/12/14 02:15:38;;;;;;;30.27;17.57;;;2.90;83.70;;;;;;4996473;28;20026;-75
2021/12/14 02:18:10;;;;;;;30.83;18.53;;;2.90;84.20;;;;;;4996586;28;20097;-74
2021/12/14 02:20:38;;;;;;;28.30;17.77;;;2.80;84.00;;;;;;4995748;28;20023;-74
2021/12/14 02:23:06;;;;;;;30.97;17.47;;;2.90;83.90;;;;;;4996352;28;20482;-74
2021/12/14 02:25:32;;;;;;;30.07;18.07;;;2.90;83.90;;;;;;4996426;28;20056;-74
2021/12/14 02:28:04;;;;;;;30.50;18.67;;;2.90;83.70;;;;;;4996177;28;20027;-74
2021/12/14 02:30:31;;;;;;;27.03;17.40;;;2.90;83.40;;;;;;4996519;28;20092;-74
2021/12/14 02:32:58;;;;;;;34.50;19.17;;;2.90;83.00;;;;;;4996101;28;20077;-75
2021/12/14 02:35:26;;;;;;;30.37;18.70;;;2.90;83.10;;;;;;4995997;28;20018;-74
2021/12/14 02:37:59;;;;;;;29.40;18.50;;;2.80;83.20;;;;;;4995999;28;20084;-74
2021/12/14 02:40:57;;;;;;;;;;;2.80;83.80;;;;;;4996652;28;20395;-74
2021/12/14 02:43:37;;;;;;;29.67;17.93;;;2.70;83.80;;;;;;4995901;28;19906;-74
2021/12/14 02:46:12;;;;;;;31.57;18.43;;;2.70;84.50;;;;;;4994190;28;20045;-73
2021/12/14 02:48:40;;;;;;;29.53;17.90;;;2.70;84.50;;;;;;4995774;28;20027;-75
2021/12/14 02:51:19;;;;;;;29.47;17.90;;;2.70;83.80;;;;;;4995232;28;20026;-74
2021/12/14 02:53:49;;;;;;;32.47;18.37;;;2.70;83.40;;;;;;4995394;28;20536;-74
2021/12/14 02:56:18;;;;;;;31.67;18.77;;;2.70;83.20;;;;;;4994625;28;20026;-74
2021/12/14 02:58:45;;;;;;;30.77;17.60;;;2.70;82.90;;;;;;4995118;28;20427;-73
2021/12/14 03:01:14;;;;;;;27.63;17.33;;;2.80;82.70;;;;;;4995374;28;20189;-73
2021/12/14 03:03:40;;;;;;;31.83;18.60;;;2.80;82.30;;;;;;4995653;28;20081;-75
2021/12/14 03:06:09;;;;;;;27.97;17.20;;;2.80;82.30;;;;;;4996064;28;20018;-75
2021/12/14 03:08:44;;;;;;;28.23;17.47;;;2.70;82.90;;;;;;4995704;28;20034;-74
2021/12/14 03:11:11;;;;;;;27.73;16.73;;;2.60;83.50;;;;;;4995660;28;20023;-75
2021/12/14 03:13:45;;;;;;;28.17;15.70;;;2.50;84.30;;;;;;4995232;28;20023;-74
2021/12/14 03:16:17;;;;;;;25.37;15.30;;;2.50;84.50;;;;;;4995578;28;20138;-73
2021/12/14 03:18:47;;;;;;;23.77;14.60;;;2.40;85.10;;;;;;4995411;28;20037;-74
2021/12/14 03:21:19;;;;;;;21.97;13.97;;;2.40;85.20;;;;;;4996590;28;20031;-75
2021/12/14 03:23:51;;;;;;;23.60;14.43;;;2.40;85.00;;;;;;4997696;28;20030;-74
2021/12/14 03:26:22;;;;;;;24.03;15.20;;;2.40;85.10;;;;;;4998427;28;20265;-74
2021/12/14 03:28:51;;;;;;;26.37;13.97;;;2.40;84.80;;;;;;4996508;28;20045;-74
2021/12/14 03:31:38;;;;;;;25.03;14.97;;;2.50;84.60;;;;;;4996087;28;20053;-74
2021/12/14 03:34:15;;;;;;;26.00;15.00;;;2.60;84.40;;;;;;4995490;28;20047;-74
2021/12/14 03:37:04;;;;;;;25.57;14.43;;;2.50;83.90;;;;;;4995652;28;20030;-74
2021/12/14 03:39:43;;;;;;;22.50;14.50;;;2.60;83.80;;;;;;4995235;28;20407;-75
2021/12/14 03:42:11;;;;;;;26.37;14.63;;;2.60;83.80;;;;;;4994843;28;20105;-74
2021/12/14 03:44:56;;;;;;;26.53;14.50;;;2.50;84.30;;;;;;4994768;28;20023;-74
2021/12/14 03:47:30;;;;;;;23.93;13.77;;;2.50;84.40;;;;;;4994716;28;20022;-74
2021/12/14 03:50:10;;;;;;;21.60;13.23;;;2.60;84.30;;;;;;4994759;28;20026;-75
2021/12/14 03:52:38;;;;;;;23.93;14.63;;;2.60;84.30;;;;;;4994688;28;20034;-74
2021/12/14 03:55:33;;;;;;;19.63;12.60;;;2.70;84.10;;;;;;4994901;28;20062;-74
2021/12/14 03:57:59;;;;;;;21.27;13.30;;;2.70;84.00;;;;;;4993350;28;20042;-75
2021/12/14 04:00:30;;;;;;;22.03;13.67;;;2.70;84.00;;;;;;4994740;28;20026;-74
2021/12/14 04:03:00;;;;;;;25.00;13.27;;;2.60;84.60;;;;;;4994234;28;20458;-73
2021/12/14 04:05:26;;;;;;;23.07;13.53;;;2.70;84.30;;;;;;4994504;28;20037;-75
2021/12/14 04:07:52;;;;;;;19.47;12.60;;;2.60;84.10;;;;;;4994461;28;20030;-74
2021/12/14 04:10:25;;;;;;;22.23;12.77;;;2.60;83.90;;;;;;4994652;28;20065;-74
2021/12/14 04:12:51;;;;;;;19.58;11.65;;;2.60;83.80;;;;;;4994329;28;20019;-74
2021/12/14 04:15:18;;;;;;;18.63;11.53;;;2.60;83.80;;;;;;4994162;28;20026;-75
2021/12/14 04:17:44;;;;;;;21.50;11.10;;;2.60;83.80;;;;;;4994666;28;20019;-74
2021/12/14 04:20:23;;;;;;;18.83;11.60;;;2.50;84.40;;;;;;4994027;28;20032;-73
2021/12/14 04:22:49;;;;;;;19.27;11.13;;;2.50;84.70;;;;;;4994295;28;20095;-73
2021/12/14 04:25:19;;;;;;;18.37;11.40;;;2.50;84.60;;;;;;4994321;28;20058;-73
2021/12/14 04:27:46;;;;;;;17.13;10.37;;;2.50;84.40;;;;;;4994287;28;20026;-74
2021/12/14 04:30:15;;;;;;;18.57;9.87;;;2.60;84.10;;;;;;4994164;28;20125;-74
2021/12/14 04:32:46;;;;;;;17.17;10.57;;;2.60;83.90;;;;;;4993700;28;20069;-73
2021/12/14 04:35:12;;;;;;;12.87;7.77;;;2.60;83.80;;;;;;4993064;28;20030;-75
2021/12/14 04:37:40;;;;;;;14.33;8.27;;;2.60;83.60;;;;;;4993162;28;20038;-74
2021/12/14 04:40:24;;;;;;;15.50;8.67;;;2.60;84.30;;;;;;4993212;28;20023;-74
2021/12/14 04:54:02;;;;;;;11.90;7.30;;;2.50;84.30;;;;;;4993018;28;20123;-74
2021/12/14 04:56:39;;;;;;;18.73;8.77;;;2.50;84.20;;;;;;4992698;28;20046;-74
2021/12/14 04:59:25;;;;;;;16.93;8.93;;;2.50;83.90;;;;;;4992543;28;20536;-74
2021/12/14 05:01:55;;;;;;;14.00;9.07;;;2.40;83.70;;;;;;4991836;28;20034;-73
2021/12/14 05:04:23;;;;;;;15.23;8.50;;;2.40;83.70;;;;;;4992978;28;20483;-74
2021/12/14 05:06:54;;;;;;;15.27;9.20;;;2.40;83.70;;;;;;4992828;28;20022;-74
2021/12/14 05:09:28;;;;;;;16.97;9.93;;;2.40;83.50;;;;;;4992307;28;20058;-73
2021/12/14 05:11:56;;;;;;;17.17;10.97;;;2.40;83.30;;;;;;4992120;28;20582;-75
2021/12/14 05:14:23;;;;;;;18.73;10.80;;;2.40;83.00;;;;;;4992727;28;20031;-74
2021/12/14 05:16:53;;;;;;;19.93;10.80;;;2.30;82.90;;;;;;4992706;28;20095;-73
2021/12/14 05:19:24;;;;;;;17.47;10.83;;;2.20;83.10;;;;;;4992778;28;20022;-74
2021/12/14 05:21:51;;;;;;;21.87;11.17;;;2.20;83.40;;;;;;4992749;28;20038;-74
2021/12/14 05:24:21;;;;;;;17.03;10.73;;;2.20;83.30;;;;;;4992442;28;20101;-74
2021/12/14 05:26:50;;;;;;;18.43;10.73;;;2.10;83.20;;;;;;4993391;28;20077;-74
2021/12/14 05:29:21;;;;;;;20.67;11.17;;;2.00;83.90;;;;;;4996177;28;20039;-74
2021/12/14 05:31:50;;;;;;;20.23;11.60;;;2.00;84.20;;;;;;4996098;28;20054;-74
2021/12/14 05:34:16;;;;;;;16.33;10.70;;;1.90;85.00;;;;;;4956032;28;1203759;-75
2021/12/14 05:36:43;;;;;;;16.70;10.53;;;1.90;85.70;;;;;;4997167;28;20069;-74
2021/12/14 05:39:46;;;;;;;19.30;11.40;;;1.90;85.60;;;;;;4997360;28;20454;-75
2021/12/14 05:45:11;;;;;;;24.63;13.53;;;2.00;85.10;;;;;;4996194;28;20033;-73
2021/12/14 05:47:56;;;;;;;22.00;13.07;;;2.00;85.50;;;;;;4996785;28;20030;-74
2021/12/14 05:50:33;;;;;;;22.97;12.70;;;2.00;85.30;;;;;;4997362;28;20035;-75
2021/12/14 05:52:59;;;;;;;19.83;11.27;;;2.00;85.20;;;;;;4997001;28;20117;-74
2021/12/14 05:55:29;;;;;;;19.83;11.37;;;2.10;84.90;;;;;;4997078;28;20026;-74
2021/12/14 05:57:57;;;;;;;18.17;11.27;;;2.10;85.00;;;;;;4996970;28;20118;-74
2021/12/14 06:00:22;;;;;;;16.83;11.10;;;2.10;85.40;;;;;;4996839;28;20066;-73
2021/12/14 06:02:48;;;;;;;15.67;8.80;;;2.00;85.70;;;;;;4996866;28;20483;-74
2021/12/14 06:05:19;;;;;;;12.30;7.37;;;2.00;86.00;;;;;;4996724;28;20439;-74
2021/12/14 06:07:45;;;;;;;10.43;6.23;;;2.10;86.70;;;;;;4996957;28;20040;-74
2021/12/14 06:10:13;;;;;;;11.17;5.90;;;2.20;86.40;;;;;;4996799;28;20108;-73
2021/12/14 06:12:40;;;;;;;10.87;5.43;;;2.20;86.40;;;;;;4996504;28;20105;-74
2021/12/14 06:15:11;;;;;;;9.57;5.70;;;2.20;86.50;;;;;;4996717;28;20450;-73
2021/12/14 06:17:40;;;;;;;12.33;5.93;;;2.20;86.80;;;;;;4996588;28;20019;-74
2021/12/14 06:20:10;;;;;;;9.90;5.63;;;2.30;86.40;;;;;;4995690;28;20096;-75
2021/12/14 06:22:38;;;;;;;9.47;5.67;;;2.40;86.20;;;;;;4996100;28;20022;-75
2021/12/14 06:25:09;;;;;;;9.37;5.63;;;2.40;85.70;;;;;;4996499;28;20042;-73
2021/12/14 06:27:35;;;;;;;12.70;7.47;;;2.50;85.10;;;;;;4995042;28;20477;-74
2021/12/14 06:30:12;;;;;;;16.10;9.07;;;2.50;84.50;;;;;;4996222;28;20043;-74
2021/12/14 06:32:48;;;;;;;20.73;9.97;;;2.50;83.90;;;;;;4995954;28;20520;-74
2021/12/14 06:35:20;;;;;;;21.23;10.53;;;2.40;83.30;;;;;;4996334;28;20030;-74
2021/12/14 06:40:30;;;;;;;19.30;10.77;;;2.20;83.50;;;;;;4996489;28;19960;-73
2021/12/14 06:42:59;;;;;;;19.37;10.07;;;2.20;84.00;;;;;;4996082;28;20031;-74
2021/12/14 06:45:48;;;;;;;15.83;10.10;;;2.10;84.30;;;;;;4994773;28;20113;-73
2021/12/14 06:48:21;;;;;;;18.90;11.60;;;2.10;84.80;;;;;;4995252;28;20037;-74
2021/12/14 06:51:11;;;;;;;22.83;13.03;;;2.00;85.40;;;;;;4995824;28;20045;-74
2021/12/14 06:53:37;;;;;;;18.30;11.33;;;1.90;85.90;;;;;;4995863;28;20026;-74
2021/12/14 06:56:10;;;;;;;20.13;10.13;;;2.00;86.40;;;;;;4995429;28;20483;-74
2021/12/14 06:58:56;;;;;;;17.43;10.50;;;2.00;87.20;;;;;;4995062;28;20471;-73
2021/12/14 07:01:48;;;;;;;18.80;10.93;;;1.90;87.20;;;;;;4997769;28;20026;-74
2021/12/14 07:04:18;;;;;;;22.03;12.90;;;1.90;87.10;;;;;;4995282;28;20188;-73
2021/12/14 07:06:48;;;;;;;20.30;12.33;;;2.00;86.40;;;;;;4995411;28;20034;-74
2021/12/14 07:09:15;;;;;;;19.87;12.93;;;1.90;86.50;;;;;;4995579;28;20383;-74
2021/12/14 07:12:03;;;;;;;22.77;11.97;;;1.90;87.60;;;;;;4995357;28;20128;-73
2021/12/14 07:14:40;;;;;;;19.37;12.17;;;1.80;87.30;;;;;;4994854;28;20042;-74
2021/12/14 07:17:26;;;;;;;17.80;11.63;;;1.80;87.90;;;;;;4995000;28;20087;-74
2021/12/14 07:19:56;;;;;;;24.73;13.60;;;1.80;88.20;;;;;;4994686;28;20035;-74
2021/12/14 07:22:27;;;;;;;22.00;13.30;;;1.80;88.10;;;;;;4994801;28;20077;-74
2021/12/14 07:25:24;;;;;;;29.23;13.27;;;1.90;88.10;;;;;;4994155;28;20022;-73
2021/12/14 07:27:53;;;;;;;34.00;13.13;;;2.00;88.10;;;;;;4994414;28;20046;-75
2021/12/14 07:30:38;;;;;;;23.67;12.23;;;2.20;87.60;;;;;;4994971;28;20030;-74
2021/12/14 07:33:15;;;;;;;26.53;12.97;;;2.30;87.40;;;;;;4994588;28;20103;-74
2021/12/14 07:35:46;;;;;;;21.77;11.37;;;2.40;87.10;;;;;;4995100;28;20069;-75
2021/12/14 07:38:14;;;;;;;17.90;10.63;;;2.40;87.40;;;;;;4994841;28;20045;-75
2021/12/14 07:40:43;;;;;;;16.43;9.03;;;2.50;87.30;;;;;;4994686;28;20033;-75
2021/12/14 07:43:11;;;;;;;25.17;11.70;;;2.60;87.10;;;;;;4994468;28;20109;-75
2021/12/14 07:45:38;;;;;;;26.03;13.10;;;2.80;86.60;;;;;;4994932;28;20026;-75
2021/12/14 07:48:04;;;;;;;29.43;14.50;;;2.90;86.10;;;;;;4994829;28;20110;-73
2021/12/14 07:50:46;;;;;;;30.37;15.50;;;3.10;85.20;;;;;;4993601;28;20116;-73
2021/12/14 07:53:13;;;;;;;28.23;16.58;;;3.20;84.20;;;;;;4991972;28;20130;-74
2021/12/14 07:55:43;;;;;;;27.93;15.70;;;3.30;83.40;;;;;;4990806;28;20038;-71
2021/12/14 07:58:09;;;;;;;21.87;14.67;;;3.40;82.90;;;;;;4991756;28;20041;-75
2021/12/14 08:00:40;;;;;;;21.97;14.63;;;3.50;82.60;;;;;;4993092;28;20035;-76
2021/12/14 08:03:08;;;;;;;31.70;15.30;;;3.60;82.30;;;;;;4994516;28;20030;-76
2021/12/14 08:05:36;;;;;;;36.43;16.97;;;3.70;82.40;;;;;;4994544;28;20552;-75
2021/12/14 08:08:15;;;;;;;54.70;20.50;;;3.70;81.90;;;;;;4994009;28;20064;-68
2021/12/14 08:10:47;;;;;;;62.03;24.47;;;3.80;81.80;;;;;;4993256;28;20108;-74
2021/12/14 08:13:21;;;;;;;72.32;27.92;;;3.90;82.80;;;;;;4993204;28;20046;-74
2021/12/14 08:15:53;;;;;;;90.37;28.83;;;3.90;82.60;;;;;;4992959;28;20068;-75
2021/12/14 08:18:20;;;;;;;77.45;26.55;;;3.90;83.20;;;;;;4990603;28;20029;-76
2021/12/14 08:21:08;;;;;;;69.47;26.07;;;4.00;81.70;;;;;;4992158;28;20026;-75
2021/12/14 08:23:49;;;;;;;69.87;25.93;;;4.00;82.40;;;;;;4992944;28;20033;-76
2021/12/14 08:26:22;;;;;;;73.43;23.63;;;4.00;82.80;;;;;;4993275;28;20022;-72
2021/12/14 08:28:55;;;;;;;65.97;23.00;;;4.10;82.40;;;;;;4992422;28;20092;-75
2021/12/14 08:31:25;;;;;;;60.42;21.83;;;4.10;81.90;;;;;;4992934;28;20065;-75
2021/12/14 08:34:04;;;;;;;51.30;20.60;;;4.10;82.70;;;;;;4992903;28;20396;-74
2021/12/14 08:37:04;;;;;;;37.73;17.07;;;4.20;83.20;;;;;;4992860;28;20065;-77
2021/12/14 08:39:38;;;;;;;25.27;11.73;;;4.30;82.80;;;;;;4989146;28;20112;-76
2021/12/14 08:42:23;;;;;;;22.03;9.43;;;4.40;81.20;;;;;;4993346;28;20026;-75
2021/12/14 08:44:56;;;;;;;17.50;7.60;;;4.50;81.00;;;;;;4992697;28;20455;-73
2021/12/14 08:47:30;;;;;;;19.75;8.32;;;4.70;81.50;;;;;;4991885;28;20049;-76
2021/12/14 08:49:58;;;;;;;17.20;8.43;;;4.90;82.00;;;;;;4992626;28;20031;-77
2021/12/14 08:52:25;;;;;;;23.73;11.73;;;5.00;81.70;;;;;;4993259;28;20014;-76
2021/12/14 08:54:54;;;;;;;31.07;14.23;;;5.10;81.50;;;;;;4993489;28;20053;-75
2021/12/14 08:57:23;;;;;;;27.53;14.17;;;5.20;81.00;;;;;;4992582;28;20081;-75
2021/12/14 08:59:54;;;;;;;29.50;15.30;;;5.30;80.30;;;;;;4992800;28;20036;-76
2021/12/14 09:02:22;;;;;;;34.07;15.60;;;5.30;80.70;;;;;;4993164;28;20042;-76
2021/12/14 09:05:03;;;;;;;38.43;15.33;;;5.40;79.90;;;;;;4993069;28;20495;-75
2021/12/14 09:07:31;;;;;;;25.40;13.43;;;5.40;79.90;;;;;;4993320;28;20040;-76
2021/12/14 09:09:59;;;;;;;30.47;14.40;;;5.40;80.00;;;;;;4992834;28;20034;-76
2021/12/14 09:12:29;;;;;;;25.43;13.13;;;5.40;79.90;;;;;;4992845;28;20018;-76
2021/12/14 09:15:00;;;;;;;23.97;12.93;;;5.50;80.30;;;;;;4992760;28;20026;-77
2021/12/14 09:17:26;;;;;;;21.97;11.67;;;5.50;80.50;;;;;;4992870;28;20031;-76
2021/12/14 09:19:57;;;;;;;22.10;11.57;;;5.60;80.00;;;;;;4992492;28;20030;-75
2021/12/14 09:22:31;;;;;;;21.37;11.50;;;5.60;79.70;;;;;;4992333;28;20529;-73
2021/12/14 09:24:58;;;;;;;15.07;9.87;;;5.70;79.40;;;;;;4992429;28;20026;-75
2021/12/14 09:27:26;;;;;;;14.53;9.40;;;5.80;79.10;;;;;;4993035;28;20381;-77
2021/12/14 09:29:53;;;;;;;16.53;10.70;;;5.90;78.90;;;;;;4992446;28;20113;-75
2021/12/14 09:32:25;;;;;;;18.50;9.60;;;5.90;78.80;;;;;;4992160;28;20034;-76
2021/12/14 09:34:52;;;;;;;16.03;9.90;;;6.00;79.20;;;;;;4990990;28;20093;-77
2021/12/14 09:37:19;;;;;;;20.53;9.30;;;6.00;78.60;;;;;;4992001;28;20265;-75
2021/12/14 09:39:51;;;;;;;14.60;8.47;;;6.10;78.50;;;;;;4992123;28;20049;-75
2021/12/14 09:42:23;;;;;;;12.60;8.20;;;6.30;83.50;;;;;;4991865;28;20030;-75
2021/12/14 09:44:52;;;;;;;16.33;8.02;;;6.20;78.40;;;;;;4991550;28;20023;-75
2021/12/14 09:47:25;;;;;;;12.00;7.93;;;6.30;77.90;;;;;;4991709;28;20030;-75
2021/12/14 09:49:51;;;;;;;13.30;7.75;;;6.40;77.90;;;;;;4992419;28;20038;-76
2021/12/14 09:52:25;;;;;;;14.03;7.90;;;6.50;78.00;;;;;;4992284;28;20033;-73
2021/12/14 09:54:54;;;;;;;15.33;8.83;;;6.50;78.40;;;;;;4991549;28;20034;-71
2021/12/14 09:57:30;;;;;;;18.13;10.70;;;6.60;78.50;;;;;;4996700;28;20018;-70
2021/12/14 09:59:59;;;;;;;18.23;9.70;;;6.70;78.40;;;;;;4995325;28;20026;-74
2021/12/14 10:02:35;;;;;;;13.43;8.50;;;6.80;78.60;;;;;;4996034;28;20337;-69
2021/12/14 10:05:06;;;;;;;14.50;7.90;;;6.90;78.90;;;;;;4994499;28;20038;-70
2021/12/14 10:07:32;;;;;;;12.87;7.73;;;7.00;78.00;;;;;;4992213;28;20177;-77
2021/12/14 10:10:00;;;;;;;11.07;7.33;;;7.10;77.80;;;;;;4991694;28;20445;-74
2021/12/14 10:15:03;;;;;;;11.53;6.13;;;7.20;77.10;;;;;;4996298;28;20034;-74
2021/12/14 10:17:29;;;;;;;10.80;6.13;;;7.30;76.60;;;;;;4996025;28;20082;-76
2021/12/14 10:19:55;;;;;;;10.70;6.20;;;7.40;75.90;;;;;;4996624;28;20031;-74
2021/12/14 10:22:26;;;;;;;11.57;6.57;;;7.50;75.50;;;;;;4996626;28;20387;-75
2021/12/14 10:24:59;;;;;;;9.70;7.00;;;7.60;75.10;;;;;;4996678;28;20378;-76
2021/12/14 10:27:28;;;;;;;13.55;6.85;;;7.70;75.10;;;;;;4996279;28;20023;-74
2021/12/14 10:29:55;;;;;;;11.00;6.50;;;7.90;74.80;;;;;;4994195;28;20526;-74
2021/12/14 10:32:29;;;;;;;19.63;6.43;;;7.90;74.10;;;;;;4995991;28;20033;-76
2021/12/14 10:35:00;;;;;;;13.83;7.10;;;8.00;74.40;;;;;;4996870;28;20529;-73
2021/12/14 10:37:40;;;;;;;8.93;5.70;;;8.10;73.60;;;;;;4996084;28;20049;-75
2021/12/14 10:43:06;;;;;;;10.43;6.43;;;8.30;73.00;;;;;;4996204;28;20150;-74
2021/12/14 10:45:34;;;;;;;11.83;6.07;;;8.30;72.90;;;;;;4995444;28;20037;-72
2021/12/14 10:48:00;;;;;;;10.33;6.33;;;8.40;73.10;;;;;;4995592;28;20032;-75
2021/12/14 10:50:31;;;;;;;12.77;8.07;;;8.40;73.20;;;;;;4995956;28;20505;-75
2021/12/14 10:52:58;;;;;;;16.03;7.60;;;8.50;72.80;;;;;;4996023;28;20105;-75
2021/12/14 10:55:35;;;;;;;15.40;6.70;;;8.40;72.60;;;;;;4996229;28;20117;-74
2021/12/14 10:58:03;;;;;;;12.37;6.13;;;8.50;72.80;;;;;;4996207;28;20022;-75
2021/12/14 11:00:36;;;;;;;15.53;5.83;;;8.50;72.50;;;;;;4996078;28;20036;-74
2021/12/14 11:03:07;;;;;;;;;;;8.60;72.20;;;;;;4996381;28;20038;-71
2021/12/14 11:05:34;;;;;;;376.47;192.10;;;8.60;71.90;;;;;;4996041;28;19906;-76
2021/12/14 11:08:02;;;;;;;305.80;146.13;;;8.60;72.00;;;;;;4996111;28;20034;-76
2021/12/14 11:10:34;;;;;;;17.07;10.40;;;8.70;72.20;;;;;;4995728;28;20034;-74
2021/12/14 11:13:06;;;;;;;490.80;229.50;;;8.70;72.50;;;;;;4995054;28;20466;-75
2021/12/14 11:15:36;;;;;;;895.30;450.40;;;8.70;72.60;;;;;;4995864;28;20030;-75
2021/12/14 11:18:09;;;;;;;415.57;186.40;;;8.70;72.30;;;;;;4995929;28;20027;-75
2021/12/14 11:20:40;;;;;;;;;;;8.70;71.70;;;;;;4996054;28;20026;-76
2021/12/14 11:23:18;;;;;;;49.93;24.97;;;8.80;71.90;;;;;;4995513;28;19952;-76
2021/12/14 11:25:49;;;;;;;19.63;8.43;;;8.80;72.80;;;;;;4994526;28;20491;-74
2021/12/14 11:28:31;;;;;;;17.47;6.73;;;8.80;72.70;;;;;;4995468;28;20038;-75
2021/12/14 11:31:17;;;;;;;10.63;5.37;;;8.80;72.70;;;;;;4995554;28;20037;-75
2021/12/14 11:33:49;;;;;;;13.73;6.53;;;8.90;72.00;;;;;;4995050;28;20046;-75
2021/12/14 11:36:27;;;;;;;10.30;7.10;;;8.90;71.70;;;;;;4995421;28;20467;-74
2021/12/14 11:39:03;;;;;;;10.27;5.03;;;8.90;72.20;;;;;;4995421;28;20053;-75
2021/12/14 11:41:42;;;;;;;15.20;7.03;;;8.90;72.20;;;;;;4995277;28;20482;-74
2021/12/14 11:44:08;;;;;;;18.20;9.77;;;8.90;72.60;;;;;;4994943;28;20582;-76
2021/12/14 11:46:57;;;;;;;12.97;7.20;;;8.90;72.30;;;;;;4995033;28;20053;-76
2021/12/14 11:49:37;;;;;;;12.87;5.87;;;9.00;72.50;;;;;;4995206;28;20062;-74
2021/12/14 11:52:04;;;;;;;11.80;6.53;;;9.10;71.60;;;;;;4995288;28;20471;-75
2021/12/14 11:54:37;;;;;;;14.40;6.07;;;9.10;72.20;;;;;;4995030;28;20014;-75
2021/12/14 11:57:04;;;;;;;15.47;5.80;;;9.10;72.00;;;;;;4995042;28;20101;-75
2021/12/14 11:59:29;;;;;;;9.17;5.33;;;9.10;71.80;;;;;;4995209;28;20045;-75
2021/12/14 12:01:55;;;;;;;11.77;5.33;;;9.10;72.00;;;;;;4994495;28;20043;-74
2021/12/14 12:04:33;;;;;;;12.53;5.60;;;9.10;71.90;;;;;;4994683;28;20026;-74
2021/12/14 12:09:44;;;;;;;9.23;4.47;;;9.10;72.00;;;;;;4994533;28;20509;-73
2021/12/14 12:12:13;;;;;;;14.77;5.27;;;9.20;72.20;;;;;;4994488;28;20471;-74
2021/12/14 12:14:51;;;;;;;9.27;5.83;;;9.10;72.60;;;;;;4991436;28;20068;-71
2021/12/14 12:17:36;;;;;;;11.20;6.83;;;9.20;72.50;;;;;;4991594;28;20491;-72
2021/12/14 12:20:17;;;;;;;14.27;7.47;;;9.20;72.30;;;;;;4993670;28;20089;-75
2021/12/14 12:22:51;;;;;;;9.43;6.63;;;9.20;72.20;;;;;;4993973;28;20034;-73
2021/12/14 12:25:27;;;;;;;7.70;5.67;;;9.20;72.30;;;;;;4994526;28;20034;-78
2021/12/14 12:27:58;;;;;;;8.17;5.67;;;9.20;72.30;;;;;;4993554;28;20030;-77
2021/12/14 12:30:29;;;;;;;14.57;6.70;;;9.20;72.20;;;;;;4994124;28;20042;-77
2021/12/14 12:32:57;;;;;;;11.63;6.13;;;9.20;72.10;;;;;;4994056;28;20050;-78
2021/12/14 12:35:28;;;;;;;12.63;6.13;;;9.20;72.00;;;;;;4993822;28;20406;-79
2021/12/14 12:37:57;;;;;;;9.90;6.40;;;9.20;72.30;;;;;;4994070;28;20097;-79
2021/12/14 12:40:46;;;;;;;9.77;6.27;;;9.20;72.80;;;;;;4993858;28;20031;-77
2021/12/14 12:43:39;;;;;;;14.47;6.83;;;9.20;72.90;;;;;;4991184;28;20505;-75
2021/12/14 12:46:17;;;;;;;10.63;6.50;;;9.20;72.80;;;;;;4986829;28;20149;-78
2021/12/14 12:49:01;;;;;;;12.67;6.37;;;9.20;72.90;;;;;;4992600;28;20445;-74
2021/12/14 12:51:48;;;;;;;10.50;6.80;;;9.20;73.20;;;;;;4990952;28;20034;-73
2021/12/14 12:54:28;;;;;;;13.13;7.37;;;9.20;73.30;;;;;;4990931;28;20037;-73
2021/12/14 12:57:09;;;;;;;13.03;7.73;;;9.20;73.50;;;;;;4993530;28;20385;-77
2021/12/14 13:00:09;;;;;;;14.20;7.30;;;9.20;73.30;;;;;;4993586;28;20498;-73
2021/12/14 13:02:46;;;;;;;10.87;7.30;;;9.20;73.40;;;;;;4993274;28;20494;-74
2021/12/14 13:05:46;;;;;;;13.87;7.43;;;9.20;74.10;;;;;;4993160;28;20081;-76
2021/12/14 13:08:18;;;;;;;12.93;6.73;;;9.10;73.90;;;;;;4991698;28;20390;-78
2021/12/14 13:10:49;;;;;;;16.70;8.03;;;9.10;74.10;;;;;;4992949;28;20066;-76
2021/12/14 13:13:27;;;;;;;21.43;12.77;;;9.10;74.40;;;;;;4993448;28;20022;-74
2021/12/14 13:16:15;;;;;;;18.60;8.53;;;9.10;74.20;;;;;;4992809;28;20033;-76
2021/12/14 13:19:13;;;;;;;18.47;8.33;;;9.10;74.30;;;;;;4993668;28;20034;-77
2021/12/14 13:22:05;;;;;;;15.93;7.70;;;9.10;74.10;;;;;;4991564;28;20506;-77
2021/12/14 13:24:32;;;;;;;13.20;7.30;;;9.10;74.30;;;;;;4993198;28;20430;-74
2021/12/14 13:27:08;;;;;;;15.63;7.07;;;9.10;74.40;;;;;;4992873;28;20041;-75
2021/12/14 13:29:36;;;;;;;17.23;6.87;;;9.00;74.30;;;;;;4993128;28;20094;-75
2021/12/14 13:32:19;;;;;;;23.83;7.10;;;9.00;74.30;;;;;;4992888;28;20545;-74
2021/12/14 13:34:51;;;;;;;;;;;9.00;74.50;;;;;;4993196;28;20064;-74
2021/12/14 13:37:29;;;;;;;16.47;7.73;;;9.00;74.70;;;;;;4992209;28;20293;-72
2021/12/14 13:39:56;;;;;;;18.37;7.87;;;9.00;75.00;;;;;;4993528;28;20556;-74
2021/12/14 13:42:42;;;;;;;19.03;8.00;;;9.00;75.00;;;;;;4992986;28;20157;-75
2021/12/14 13:45:13;;;;;;;16.37;8.60;;;9.00;75.20;;;;;;4992668;28;20026;-73
2021/12/14 13:47:40;;;;;;;16.87;7.67;;;8.90;75.20;;;;;;4994004;28;20391;-76
2021/12/14 13:50:13;;;;;;;19.33;8.13;;;8.90;75.40;;;;;;4996700;28;20113;-72
2021/12/14 13:52:39;;;;;;;;;;;8.90;75.70;;;;;;4997129;28;20022;-75